sensor_id;sensor_type;location;lat;lon;timestamp;pressure;altitude;pressure_sealevel;temperature;humidity
53647;BME280;39550;52.230;5.194;2023-04-28T00:01:44;101317.28;;;9.51;64.11
53647;BME280;39550;52.230;5.194;2023-04-28T00:04:10;101244.28;;;9.02;64.45
53647;BME280;39550;52.230;5.194;2023-04-28T00:06:35;101257.38;;;9.13;64.30
53647;BME280;39550;52.230;5.194;2023-04-28T00:09:01;101222.78;;;8.98;63.83
53647;BME280;39550;52.230;5.194;2023-04-28T00:11:27;101279.28;;;9.38;64.17
53647;BME280;39550;52.230;5.194;2023-04-28T00:13:52;101230.59;;;9.03;64.37
53647;BME280;39550;52.230;5.194;2023-04-28T00:16:18;101196.91;;;8.89;64.25
53647;BME280;39550;52.230;5.194;2023-04-28T00:18:43;101286.34;;;9.48;64.27
53647;BME280;39550;52.230;5.194;2023-04-28T00:21:09;101191.75;;;8.88;64.20
53647;BME280;39550;52.230;5.194;2023-04-28T00:23:34;101194.41;;;8.94;64.03
53647;BME280;39550;52.230;5.194;2023-04-28T00:25:59;101274.19;;;9.41;63.86
53647;BME280;39550;52.230;5.194;2023-04-28T00:28:24;101249.13;;;9.29;64.34
53647;BME280;39550;52.230;5.194;2023-04-28T00:30:51;101210.13;;;9.09;64.82
53647;BME280;39550;52.230;5.194;2023-04-28T00:33:16;101192.78;;;8.97;64.81
53647;BME280;39550;52.230;5.194;2023-04-28T00:35:42;101246.56;;;9.31;64.79
53647;BME280;39550;52.230;5.194;2023-04-28T00:38:07;101256.13;;;9.36;63.90
53647;BME280;39550;52.230;5.194;2023-04-28T00:40:37;101136.47;;;8.65;64.64
53647;BME280;39550;52.230;5.194;2023-04-28T00:43:03;101243.03;;;9.26;64.07
53647;BME280;39550;52.230;5.194;2023-04-28T00:45:28;101266.47;;;9.41;64.80
53647;BME280;39550;52.230;5.194;2023-04-28T00:47:54;101250.75;;;9.26;64.54
53647;BME280;39550;52.230;5.194;2023-04-28T00:50:23;101210.94;;;9.07;64.09
53647;BME280;39550;52.230;5.194;2023-04-28T00:52:50;101259.63;;;9.40;64.34
53647;BME280;39550;52.230;5.194;2023-04-28T00:55:17;101255.25;;;9.36;64.71
53647;BME280;39550;52.230;5.194;2023-04-28T00:57:43;101226.72;;;9.24;64.77
53647;BME280;39550;52.230;5.194;2023-04-28T01:00:09;101253.56;;;9.38;64.36
53647;BME280;39550;52.230;5.194;2023-04-28T01:02:35;101248.44;;;9.38;65.02
53647;BME280;39550;52.230;5.194;2023-04-28T01:05:01;101206.03;;;9.19;64.97
53647;BME280;39550;52.230;5.194;2023-04-28T01:07:26;101212.19;;;9.26;64.72
53647;BME280;39550;52.230;5.194;2023-04-28T01:09:52;101181.81;;;9.06;64.67
53647;BME280;39550;52.230;5.194;2023-04-28T01:12:18;101208.75;;;9.25;64.66
53647;BME280;39550;52.230;5.194;2023-04-28T01:14:43;101120.22;;;8.68;65.39
53647;BME280;39550;52.230;5.194;2023-04-28T01:17:09;101132.25;;;8.69;64.39
53647;BME280;39550;52.230;5.194;2023-04-28T01:19:35;101149.66;;;8.82;64.53
53647;BME280;39550;52.230;5.194;2023-04-28T01:22:01;101167.84;;;8.92;64.80
53647;BME280;39550;52.230;5.194;2023-04-28T01:24:26;101208.53;;;9.14;64.47
53647;BME280;39550;52.230;5.194;2023-04-28T01:26:51;101222.53;;;9.30;65.12
53647;BME280;39550;52.230;5.194;2023-04-28T01:29:17;101176.56;;;9.00;64.53
53647;BME280;39550;52.230;5.194;2023-04-28T01:31:42;101214.78;;;9.27;64.49
53647;BME280;39550;52.230;5.194;2023-04-28T01:34:07;101222.53;;;9.29;64.99
53647;BME280;39550;52.230;5.194;2023-04-28T01:36:33;101130.75;;;8.80;64.25
53647;BME280;39550;52.230;5.194;2023-04-28T01:38:58;101198.44;;;9.24;64.41
53647;BME280;39550;52.230;5.194;2023-04-28T01:41:24;101187.19;;;9.18;65.01
53647;BME280;39550;52.230;5.194;2023-04-28T01:43:49;101183.69;;;9.15;64.46
53647;BME280;39550;52.230;5.194;2023-04-28T01:46:14;101171.69;;;9.14;64.70
53647;BME280;39550;52.230;5.194;2023-04-28T01:48:40;101168.16;;;9.09;65.45
53647;BME280;39550;52.230;5.194;2023-04-28T01:51:05;101188.97;;;9.21;64.82
53647;BME280;39550;52.230;5.194;2023-04-28T01:53:31;101118.75;;;8.79;64.58
53647;BME280;39550;52.230;5.194;2023-04-28T01:55:58;101105.75;;;8.72;64.13
53647;BME280;39550;52.230;5.194;2023-04-28T01:58:24;101143.88;;;8.94;64.56
53647;BME280;39550;52.230;5.194;2023-04-28T02:00:49;101161.22;;;9.05;64.37
53647;BME280;39550;52.230;5.194;2023-04-28T02:03:15;101104.03;;;8.72;64.43
53647;BME280;39550;52.230;5.194;2023-04-28T02:05:40;101155.16;;;9.02;64.15
53647;BME280;39550;52.230;5.194;2023-04-28T02:08:05;101171.56;;;9.08;64.17
53647;BME280;39550;52.230;5.194;2023-04-28T02:10:31;101182.88;;;9.17;64.30
53647;BME280;39550;52.230;5.194;2023-04-28T02:12:56;101119.69;;;8.84;64.27
53647;BME280;39550;52.230;5.194;2023-04-28T02:15:22;101151.00;;;9.08;64.34
53647;BME280;39550;52.230;5.194;2023-04-28T02:17:47;101164.03;;;9.18;65.06
53647;BME280;39550;52.230;5.194;2023-04-28T02:20:12;101128.56;;;9.00;64.49
53647;BME280;39550;52.230;5.194;2023-04-28T02:22:40;101047.00;;;8.46;64.42
53647;BME280;39550;52.230;5.194;2023-04-28T02:25:06;101108.59;;;8.85;64.45
53647;BME280;39550;52.230;5.194;2023-04-28T02:27:34;101158.84;;;9.14;64.19
53647;BME280;39550;52.230;5.194;2023-04-28T02:30:01;101145.91;;;9.12;64.75
53647;BME280;39550;52.230;5.194;2023-04-28T02:32:26;101027.97;;;8.38;64.49
53647;BME280;39550;52.230;5.194;2023-04-28T02:34:53;101060.97;;;8.59;63.50
53647;BME280;39550;52.230;5.194;2023-04-28T02:37:19;101143.19;;;9.03;64.29
53647;BME280;39550;52.230;5.194;2023-04-28T02:39:45;101060.19;;;8.63;64.09
53647;BME280;39550;52.230;5.194;2023-04-28T02:42:10;101121.72;;;9.01;64.26
53647;BME280;39550;52.230;5.194;2023-04-28T02:44:35;101138.16;;;9.09;64.35
53647;BME280;39550;52.230;5.194;2023-04-28T02:47:01;101096.69;;;8.89;64.68
53647;BME280;39550;52.230;5.194;2023-04-28T02:49:26;101083.63;;;8.78;64.08
53647;BME280;39550;52.230;5.194;2023-04-28T02:51:51;101042.94;;;8.56;64.21
53647;BME280;39550;52.230;5.194;2023-04-28T02:54:17;101079.25;;;8.74;64.23
53647;BME280;39550;52.230;5.194;2023-04-28T02:56:51;101071.56;;;8.76;63.82
53647;BME280;39550;52.230;5.194;2023-04-28T02:59:17;101045.66;;;8.63;64.13
53647;BME280;39550;52.230;5.194;2023-04-28T03:01:42;101056.09;;;8.73;64.20
53647;BME280;39550;52.230;5.194;2023-04-28T03:04:07;101110.66;;;9.05;63.90
53647;BME280;39550;52.230;5.194;2023-04-28T03:06:33;101070.88;;;8.86;63.87
53647;BME280;39550;52.230;5.194;2023-04-28T03:08:58;101010.38;;;8.55;63.88
53647;BME280;39550;52.230;5.194;2023-04-28T03:11:23;101044.94;;;8.72;64.17
53647;BME280;39550;52.230;5.194;2023-04-28T03:13:49;100975.69;;;8.32;64.30
53647;BME280;39550;52.230;5.194;2023-04-28T03:16:15;101001.59;;;8.43;64.67
53647;BME280;39550;52.230;5.194;2023-04-28T03:18:40;101094.34;;;9.01;64.08
53647;BME280;39550;52.230;5.194;2023-04-28T03:21:06;101050.16;;;8.75;64.19
53647;BME280;39550;52.230;5.194;2023-04-28T03:23:31;100986.09;;;8.40;64.29
53647;BME280;39550;52.230;5.194;2023-04-28T03:25:56;101079.72;;;8.99;64.01
53647;BME280;39550;52.230;5.194;2023-04-28T03:28:22;101061.63;;;8.94;64.71
53647;BME280;39550;52.230;5.194;2023-04-28T03:30:47;101012.44;;;8.74;64.09
53647;BME280;39550;52.230;5.194;2023-04-28T03:33:12;100999.44;;;8.66;64.53
53647;BME280;39550;52.230;5.194;2023-04-28T03:35:38;100947.53;;;8.37;63.87
53647;BME280;39550;52.230;5.194;2023-04-28T03:38:03;100972.63;;;8.50;64.01
53647;BME280;39550;52.230;5.194;2023-04-28T03:40:28;101060.81;;;8.97;64.14
53647;BME280;39550;52.230;5.194;2023-04-28T03:42:54;101025.41;;;8.82;64.42
53647;BME280;39550;52.230;5.194;2023-04-28T03:45:19;101047.09;;;8.95;64.54
53647;BME280;39550;52.230;5.194;2023-04-28T03:47:44;101021.13;;;8.79;63.85
53647;BME280;39550;52.230;5.194;2023-04-28T03:50:10;100985.72;;;8.63;64.29
53647;BME280;39550;52.230;5.194;2023-04-28T03:52:35;101040.19;;;8.94;64.19
53647;BME280;39550;52.230;5.194;2023-04-28T03:55:00;101005.63;;;8.76;64.65
53647;BME280;39550;52.230;5.194;2023-04-28T03:57:26;100974.47;;;8.58;64.47
53647;BME280;39550;52.230;5.194;2023-04-28T03:59:51;100969.44;;;8.64;64.43
53647;BME280;39550;52.230;5.194;2023-04-28T04:02:16;100942.47;;;8.42;64.30
53647;BME280;39550;52.230;5.194;2023-04-28T04:04:42;101026.47;;;8.92;64.66
53647;BME280;39550;52.230;5.194;2023-04-28T04:07:07;100972.88;;;8.63;64.98
53647;BME280;39550;52.230;5.194;2023-04-28T04:09:33;100932.94;;;8.36;64.88
53647;BME280;39550;52.230;5.194;2023-04-28T04:11:58;100925.13;;;8.28;64.37
53647;BME280;39550;52.230;5.194;2023-04-28T04:14:25;100949.34;;;8.44;64.32
53647;BME280;39550;52.230;5.194;2023-04-28T04:16:50;100969.44;;;8.64;64.73
53647;BME280;39550;52.230;5.194;2023-04-28T04:19:15;100876.75;;;8.06;64.61
53647;BME280;39550;52.230;5.194;2023-04-28T04:21:41;100967.72;;;8.63;65.16
53647;BME280;39550;52.230;5.194;2023-04-28T04:24:06;100913.97;;;8.28;65.18
53647;BME280;39550;52.230;5.194;2023-04-28T04:26:31;101010.13;;;8.88;64.10
53647;BME280;39550;52.230;5.194;2023-04-28T04:28:57;100930.38;;;8.36;64.86
53647;BME280;39550;52.230;5.194;2023-04-28T04:31:22;100894.88;;;8.13;65.12
53647;BME280;39550;52.230;5.194;2023-04-28T04:33:48;101009.28;;;8.88;65.11
53647;BME280;39550;52.230;5.194;2023-04-28T04:36:13;100966.94;;;8.67;65.32
53647;BME280;39550;52.230;5.194;2023-04-28T04:38:38;100994.56;;;8.82;64.97
53647;BME280;39550;52.230;5.194;2023-04-28T04:41:04;100970.50;;;8.74;64.93
53647;BME280;39550;52.230;5.194;2023-04-28T04:43:29;100955.63;;;8.56;65.09
53647;BME280;39550;52.230;5.194;2023-04-28T04:45:55;100992.94;;;8.85;64.88
53647;BME280;39550;52.230;5.194;2023-04-28T04:48:20;100944.44;;;8.54;64.82
53647;BME280;39550;52.230;5.194;2023-04-28T04:50:46;100999.00;;;8.88;65.62
53647;BME280;39550;52.230;5.194;2023-04-28T04:53:11;100820.84;;;7.88;65.16
53647;BME280;39550;52.230;5.194;2023-04-28T04:55:36;100953.16;;;8.63;65.41
53647;BME280;39550;52.230;5.194;2023-04-28T04:58:02;100977.47;;;8.81;65.58
53647;BME280;39550;52.230;5.194;2023-04-28T05:00:27;100874.44;;;8.19;65.26
53647;BME280;39550;52.230;5.194;2023-04-28T05:02:53;100966.28;;;8.80;65.38
53647;BME280;39550;52.230;5.194;2023-04-28T05:05:18;100934.09;;;8.49;65.21
53647;BME280;39550;52.230;5.194;2023-04-28T05:07:44;100896.06;;;8.31;65.29
53647;BME280;39550;52.230;5.194;2023-04-28T05:10:09;100959.38;;;8.76;65.32
53647;BME280;39550;52.230;5.194;2023-04-28T05:12:36;100977.47;;;8.82;65.29
53647;BME280;39550;52.230;5.194;2023-04-28T05:15:02;100923.78;;;8.47;65.33
53647;BME280;39550;52.230;5.194;2023-04-28T05:17:27;100986.94;;;8.83;65.15
53647;BME280;39550;52.230;5.194;2023-04-28T05:19:52;100953.97;;;8.61;65.77
53647;BME280;39550;52.230;5.194;2023-04-28T05:22:18;100963.47;;;8.65;65.61
53647;BME280;39550;52.230;5.194;2023-04-28T05:24:43;100971.16;;;8.65;65.48
53647;BME280;39550;52.230;5.194;2023-04-28T05:27:08;100953.81;;;8.51;65.63
53647;BME280;39550;52.230;5.194;2023-04-28T05:29:34;100956.28;;;8.47;65.59
53647;BME280;39550;52.230;5.194;2023-04-28T05:32:02;101012.75;;;8.91;64.91
53647;BME280;39550;52.230;5.194;2023-04-28T05:34:27;100977.22;;;8.67;65.53
53647;BME280;39550;52.230;5.194;2023-04-28T05:36:52;100927.88;;;8.39;64.98
53647;BME280;39550;52.230;5.194;2023-04-28T05:39:18;100889.94;;;8.23;65.82
53647;BME280;39550;52.230;5.194;2023-04-28T05:41:43;100892.78;;;8.40;66.02
53647;BME280;39550;52.230;5.194;2023-04-28T05:44:08;100921.31;;;8.54;66.26
53647;BME280;39550;52.230;5.194;2023-04-28T05:46:35;100978.44;;;8.88;66.53
53647;BME280;39550;52.230;5.194;2023-04-28T05:49:00;100902.13;;;8.36;66.26
53647;BME280;39550;52.230;5.194;2023-04-28T05:51:26;100978.34;;;8.84;66.38
53647;BME280;39550;52.230;5.194;2023-04-28T05:53:51;100902.25;;;8.42;66.09
53647;BME280;39550;52.230;5.194;2023-04-28T05:56:17;100971.56;;;8.86;66.55
53647;BME280;39550;52.230;5.194;2023-04-28T05:58:42;100921.56;;;8.69;66.79
53647;BME280;39550;52.230;5.194;2023-04-28T06:01:12;100940.72;;;8.86;66.55
53647;BME280;39550;52.230;5.194;2023-04-28T06:03:37;100883.69;;;8.56;67.12
53647;BME280;39550;52.230;5.194;2023-04-28T06:06:05;100837.09;;;8.37;66.79
53647;BME280;39550;52.230;5.194;2023-04-28T06:08:30;100855.38;;;8.52;67.14
53647;BME280;39550;52.230;5.194;2023-04-28T06:10:55;100891.63;;;8.69;67.21
53647;BME280;39550;52.230;5.194;2023-04-28T06:13:21;100883.88;;;8.68;66.64
53647;BME280;39550;52.230;5.194;2023-04-28T06:15:46;100824.91;;;8.24;67.12
53647;BME280;39550;52.230;5.194;2023-04-28T06:18:11;100909.69;;;8.74;67.09
53647;BME280;39550;52.230;5.194;2023-04-28T06:20:37;100849.13;;;8.38;66.98
53647;BME280;39550;52.230;5.194;2023-04-28T06:23:02;100916.56;;;8.75;67.07
53647;BME280;39550;52.230;5.194;2023-04-28T06:25:28;100895.78;;;8.63;67.54
53647;BME280;39550;52.230;5.194;2023-04-28T06:27:53;100933.03;;;8.88;67.75
53647;BME280;39550;52.230;5.194;2023-04-28T06:30:21;100888.88;;;8.59;67.94
53647;BME280;39550;52.230;5.194;2023-04-28T06:32:47;100929.41;;;8.77;67.76
53647;BME280;39550;52.230;5.194;2023-04-28T06:35:13;100956.16;;;8.88;68.18
53647;BME280;39550;52.230;5.194;2023-04-28T06:37:39;100950.84;;;8.79;67.68
53647;BME280;39550;52.230;5.194;2023-04-28T06:40:09;100962.16;;;8.89;68.28
53647;BME280;39550;52.230;5.194;2023-04-28T06:42:34;100957.75;;;8.81;67.74
53647;BME280;39550;52.230;5.194;2023-04-28T06:45:00;100921.47;;;8.63;68.12
53647;BME280;39550;52.230;5.194;2023-04-28T06:47:25;100919.84;;;8.68;67.91
53647;BME280;39550;52.230;5.194;2023-04-28T06:49:50;100870.53;;;8.40;67.63
53647;BME280;39550;52.230;5.194;2023-04-28T06:52:16;100939.94;;;8.91;68.36
53647;BME280;39550;52.230;5.194;2023-04-28T06:54:42;100825.84;;;8.29;68.41
53647;BME280;39550;52.230;5.194;2023-04-28T06:57:07;100908.88;;;8.78;68.23
53647;BME280;39550;52.230;5.194;2023-04-28T06:59:33;100919.25;;;8.84;68.16
53647;BME280;39550;52.230;5.194;2023-04-28T07:01:58;100862.19;;;8.49;68.04
53647;BME280;39550;52.230;5.194;2023-04-28T07:04:24;100892.38;;;8.64;68.29
53647;BME280;39550;52.230;5.194;2023-04-28T07:06:49;100922.63;;;8.82;68.37
53647;BME280;39550;52.230;5.194;2023-04-28T07:09:15;100897.63;;;8.70;68.18
53647;BME280;39550;52.230;5.194;2023-04-28T07:11:41;100888.91;;;8.62;68.33
53647;BME280;39550;52.230;5.194;2023-04-28T07:14:06;100914.84;;;8.77;69.31
53647;BME280;39550;52.230;5.194;2023-04-28T07:16:32;100896.66;;;8.65;69.34
53647;BME280;39550;52.230;5.194;2023-04-28T07:18:58;100880.31;;;8.60;68.45
53647;BME280;39550;52.230;5.194;2023-04-28T07:21:23;100938.25;;;8.94;69.37
53647;BME280;39550;52.230;5.194;2023-04-28T07:23:48;100866.53;;;8.55;68.71
53647;BME280;39550;52.230;5.194;2023-04-28T07:26:14;100848.41;;;8.45;68.67
53647;BME280;39550;52.230;5.194;2023-04-28T07:28:41;100927.88;;;8.88;68.64
53647;BME280;39550;52.230;5.194;2023-04-28T07:31:06;100904.63;;;8.80;68.72
53647;BME280;39550;52.230;5.194;2023-04-28T07:33:32;100934.06;;;9.01;68.94
53647;BME280;39550;52.230;5.194;2023-04-28T07:35:57;100851.19;;;8.58;68.68
53647;BME280;39550;52.230;5.194;2023-04-28T07:38:22;100892.72;;;8.85;68.64
53647;BME280;39550;52.230;5.194;2023-04-28T07:40:48;100853.75;;;8.58;68.31
53647;BME280;39550;52.230;5.194;2023-04-28T07:43:13;100930.69;;;9.03;69.31
53647;BME280;39550;52.230;5.194;2023-04-28T07:45:39;100833.91;;;8.47;69.07
53647;BME280;39550;52.230;5.194;2023-04-28T07:48:05;100883.28;;;8.84;69.30
53647;BME280;39550;52.230;5.194;2023-04-28T07:50:33;100917.09;;;9.11;69.49
53647;BME280;39550;52.230;5.194;2023-04-28T07:52:59;100863.59;;;8.83;69.32
53647;BME280;39550;52.230;5.194;2023-04-28T07:55:24;100871.38;;;8.91;68.93
53647;BME280;39550;52.230;5.194;2023-04-28T07:57:50;100859.16;;;8.76;70.17
53647;BME280;39550;52.230;5.194;2023-04-28T08:00:15;100865.22;;;8.78;69.79
53647;BME280;39550;52.230;5.194;2023-04-28T08:02:41;100904.19;;;9.06;70.10
53647;BME280;39550;52.230;5.194;2023-04-28T08:05:07;100854.97;;;8.81;70.67
53647;BME280;39550;52.230;5.194;2023-04-28T08:07:34;100873.94;;;8.90;70.58
53647;BME280;39550;52.230;5.194;2023-04-28T08:09:59;100824.66;;;8.59;70.84
53647;BME280;39550;52.230;5.194;2023-04-28T08:12:25;100909.34;;;9.09;70.43
53647;BME280;39550;52.230;5.194;2023-04-28T08:14:50;100861.88;;;8.85;69.94
53647;BME280;39550;52.230;5.194;2023-04-28T08:17:16;100903.34;;;9.07;70.16
53647;BME280;39550;52.230;5.194;2023-04-28T08:19:42;100841.84;;;8.61;70.21
53647;BME280;39550;52.230;5.194;2023-04-28T08:22:10;100878.13;;;8.83;70.45
53647;BME280;39550;52.230;5.194;2023-04-28T08:24:35;100827.97;;;8.51;70.80
53647;BME280;39550;52.230;5.194;2023-04-28T08:27:01;100857.34;;;8.69;70.86
53647;BME280;39550;52.230;5.194;2023-04-28T08:29:31;100885.03;;;8.87;70.72
53647;BME280;39550;52.230;5.194;2023-04-28T08:31:56;100918.69;;;9.04;70.27
53647;BME280;39550;52.230;5.194;2023-04-28T08:34:22;100917.84;;;9.03;71.03
53647;BME280;39550;52.230;5.194;2023-04-28T08:36:48;100850.34;;;8.59;71.63
53647;BME280;39550;52.230;5.194;2023-04-28T08:39:13;100908.41;;;9.04;71.29
53647;BME280;39550;52.230;5.194;2023-04-28T08:41:38;100918.81;;;9.10;71.30
53647;BME280;39550;52.230;5.194;2023-04-28T08:44:09;100916.22;;;9.10;73.32
53647;BME280;39550;52.230;5.194;2023-04-28T08:46:42;100856.56;;;8.75;73.39
53647;BME280;39550;52.230;5.194;2023-04-28T08:49:15;100917.91;;;9.08;70.69
53647;BME280;39550;52.230;5.194;2023-04-28T08:51:49;100910.25;;;9.11;72.42
53647;BME280;39550;52.230;5.194;2023-04-28T08:54:17;100879.19;;;8.96;72.26
53647;BME280;39550;52.230;5.194;2023-04-28T08:56:44;100889.56;;;9.02;71.67
53647;BME280;39550;52.230;5.194;2023-04-28T08:59:10;100892.28;;;9.11;72.43
53647;BME280;39550;52.230;5.194;2023-04-28T09:01:37;100845.47;;;8.77;73.01
53647;BME280;39550;52.230;5.194;2023-04-28T09:04:03;100888.78;;;9.09;72.05
53647;BME280;39550;52.230;5.194;2023-04-28T09:06:33;100863.81;;;8.99;71.62
53647;BME280;39550;52.230;5.194;2023-04-28T09:09:19;100893.13;;;9.13;73.20
53647;BME280;39550;52.230;5.194;2023-04-28T09:11:56;100882.72;;;9.04;72.70
53647;BME280;39550;52.230;5.194;2023-04-28T09:14:23;100875.91;;;9.06;72.93
53647;BME280;39550;52.230;5.194;2023-04-28T09:16:49;100867.25;;;9.01;72.09
53647;BME280;39550;52.230;5.194;2023-04-28T09:19:15;100870.72;;;9.03;71.96
53647;BME280;39550;52.230;5.194;2023-04-28T09:21:49;100882.84;;;9.12;73.41
53647;BME280;39550;52.230;5.194;2023-04-28T09:26:50;100883.66;;;9.09;72.71
53647;BME280;39550;52.230;5.194;2023-04-28T09:29:15;100879.34;;;9.08;74.17
53647;BME280;39550;52.230;5.194;2023-04-28T09:31:41;100869.94;;;9.09;74.45
53647;BME280;39550;52.230;5.194;2023-04-28T09:34:07;100875.94;;;9.09;73.57
53647;BME280;39550;52.230;5.194;2023-04-28T09:36:33;100863.03;;;9.06;72.79
53647;BME280;39550;52.230;5.194;2023-04-28T09:39:00;100846.66;;;8.98;73.04
53647;BME280;39550;52.230;5.194;2023-04-28T09:41:36;100845.88;;;9.03;73.77
53647;BME280;39550;52.230;5.194;2023-04-28T09:44:14;100878.72;;;9.25;75.76
53647;BME280;39550;52.230;5.194;2023-04-28T09:46:41;100882.97;;;9.19;76.00
53647;BME280;39550;52.230;5.194;2023-04-28T09:49:06;100876.09;;;9.18;74.49
53647;BME280;39550;52.230;5.194;2023-04-28T09:51:33;100863.22;;;9.17;74.71
53647;BME280;39550;52.230;5.194;2023-04-28T09:54:00;100879.59;;;9.24;73.16
53647;BME280;39550;52.230;5.194;2023-04-28T09:56:27;100870.19;;;9.27;73.34
53647;BME280;39550;52.230;5.194;2023-04-28T09:58:56;100864.97;;;9.19;75.12
53647;BME280;39550;52.230;5.194;2023-04-28T10:01:22;100845.13;;;9.12;74.06
53647;BME280;39550;52.230;5.194;2023-04-28T10:03:49;100793.31;;;8.81;72.86
53647;BME280;39550;52.230;5.194;2023-04-28T10:06:14;100803.59;;;8.81;73.60
53647;BME280;39550;52.230;5.194;2023-04-28T10:08:40;100785.44;;;8.72;73.47
53647;BME280;39550;52.230;5.194;2023-04-28T10:11:05;100812.31;;;8.93;72.38
53647;BME280;39550;52.230;5.194;2023-04-28T10:13:34;100840.91;;;9.17;72.42
53647;BME280;39550;52.230;5.194;2023-04-28T10:16:03;100853.88;;;9.24;73.44
53647;BME280;39550;52.230;5.194;2023-04-28T10:18:29;100860.72;;;9.25;72.12
53647;BME280;39550;52.230;5.194;2023-04-28T10:20:59;100872.84;;;9.32;74.53
53647;BME280;39550;52.230;5.194;2023-04-28T10:23:45;100864.22;;;9.30;73.00
53647;BME280;39550;52.230;5.194;2023-04-28T10:26:13;100821.09;;;9.09;74.32
53647;BME280;39550;52.230;5.194;2023-04-28T10:28:45;100821.03;;;9.04;74.55
53647;BME280;39550;52.230;5.194;2023-04-28T10:31:15;100864.19;;;9.27;73.90
53647;BME280;39550;52.230;5.194;2023-04-28T10:33:42;100834.00;;;9.13;72.94
53647;BME280;39550;52.230;5.194;2023-04-28T10:36:08;100866.00;;;9.34;73.22
53647;BME280;39550;52.230;5.194;2023-04-28T10:38:34;100850.50;;;9.28;72.31
53647;BME280;39550;52.230;5.194;2023-04-28T10:41:00;100863.44;;;9.35;72.13
53647;BME280;39550;52.230;5.194;2023-04-28T10:51:20;100860.03;;;9.36;72.06
53647;BME280;39550;52.230;5.194;2023-04-28T10:58:45;100872.13;;;9.45;72.01
53647;BME280;39550;52.230;5.194;2023-04-28T11:04:06;100843.78;;;9.39;72.07
53647;BME280;39550;52.230;5.194;2023-04-28T11:06:39;100813.53;;;9.19;71.59
53647;BME280;39550;52.230;5.194;2023-04-28T11:16:57;100858.56;;;9.56;71.59
53647;BME280;39550;52.230;5.194;2023-04-28T11:19:35;100834.44;;;9.44;72.43
53647;BME280;39550;52.230;5.194;2023-04-28T11:22:03;100812.91;;;9.36;71.69
53647;BME280;39550;52.230;5.194;2023-04-28T11:24:34;100847.41;;;9.57;73.95
53647;BME280;39550;52.230;5.194;2023-04-28T11:26:59;100788.69;;;9.20;72.89
53647;BME280;39550;52.230;5.194;2023-04-28T11:29:39;100846.56;;;9.58;74.59
53647;BME280;39550;52.230;5.194;2023-04-28T11:32:08;100832.72;;;9.46;72.84
53647;BME280;39550;52.230;5.194;2023-04-28T11:34:34;100812.00;;;9.35;73.51
53647;BME280;39550;52.230;5.194;2023-04-28T11:37:00;100855.13;;;9.55;72.98
53647;BME280;39550;52.230;5.194;2023-04-28T11:39:30;100837.88;;;9.46;72.44
53647;BME280;39550;52.230;5.194;2023-04-28T11:42:08;100837.88;;;9.48;74.28
53647;BME280;39550;52.230;5.194;2023-04-28T11:44:34;100835.25;;;9.43;72.74
53647;BME280;39550;52.230;5.194;2023-04-28T11:47:01;100813.72;;;9.33;72.07
53647;BME280;39550;52.230;5.194;2023-04-28T11:49:28;100856.00;;;9.56;72.15
53647;BME280;39550;52.230;5.194;2023-04-28T11:52:04;100843.84;;;9.45;73.04
53647;BME280;39550;52.230;5.194;2023-04-28T11:54:31;100822.25;;;9.32;73.29
53647;BME280;39550;52.230;5.194;2023-04-28T11:56:57;100799.81;;;9.20;73.35
53647;BME280;39550;52.230;5.194;2023-04-28T11:59:25;100856.84;;;9.54;73.06
53647;BME280;39550;52.230;5.194;2023-04-28T12:01:59;100860.31;;;9.58;73.87
53647;BME280;39550;52.230;5.194;2023-04-28T12:04:45;100867.16;;;9.58;74.55
53647;BME280;39550;52.230;5.194;2023-04-28T12:07:17;100868.88;;;9.57;74.57
53647;BME280;39550;52.230;5.194;2023-04-28T12:09:45;100862.84;;;9.57;74.63
53647;BME280;39550;52.230;5.194;2023-04-28T12:12:26;100810.16;;;9.24;74.01
53647;BME280;39550;52.230;5.194;2023-04-28T12:14:57;100864.59;;;9.59;73.98
53647;BME280;39550;52.230;5.194;2023-04-28T12:19:57;100875.00;;;9.67;73.13
53647;BME280;39550;52.230;5.194;2023-04-28T12:22:25;100861.22;;;9.65;73.99
53647;BME280;39550;52.230;5.194;2023-04-28T12:25:07;100869.00;;;9.68;73.34
53647;BME280;39550;52.230;5.194;2023-04-28T12:27:35;100852.56;;;9.57;74.06
53647;BME280;39550;52.230;5.194;2023-04-28T12:30:03;100855.22;;;9.64;74.11
53647;BME280;39550;52.230;5.194;2023-04-28T12:32:42;100859.56;;;9.67;72.81
53647;BME280;39550;52.230;5.194;2023-04-28T12:35:10;100871.63;;;9.74;74.51
53647;BME280;39550;52.230;5.194;2023-04-28T12:37:36;100879.34;;;9.73;73.20
53647;BME280;39550;52.230;5.194;2023-04-28T12:40:06;100882.78;;;9.75;74.04
53647;BME280;39550;52.230;5.194;2023-04-28T12:42:32;100833.56;;;9.45;73.84
53647;BME280;39550;52.230;5.194;2023-04-28T12:44:58;100864.75;;;9.73;74.66
53647;BME280;39550;52.230;5.194;2023-04-28T12:47:23;100791.28;;;9.25;73.83
53647;BME280;39550;52.230;5.194;2023-04-28T12:49:48;100827.69;;;9.54;74.22
53647;BME280;39550;52.230;5.194;2023-04-28T12:52:17;100857.84;;;9.69;73.76
53647;BME280;39550;52.230;5.194;2023-04-28T12:54:42;100811.34;;;9.50;73.57
53647;BME280;39550;52.230;5.194;2023-04-28T12:57:14;100825.97;;;9.54;73.78
53647;BME280;39550;52.230;5.194;2023-04-28T12:59:41;100798.38;;;9.43;73.96
53647;BME280;39550;52.230;5.194;2023-04-28T13:02:06;100842.47;;;9.72;73.85
53647;BME280;39550;52.230;5.194;2023-04-28T13:08:00;100881.22;;;9.86;74.17
53647;BME280;39550;52.230;5.194;2023-04-28T13:10:45;100776.75;;;9.24;73.45
53647;BME280;39550;52.230;5.194;2023-04-28T13:13:26;100893.19;;;9.84;74.27
53647;BME280;39550;52.230;5.194;2023-04-28T13:20:02;100888.88;;;9.83;75.01
53647;BME280;39550;52.230;5.194;2023-04-28T13:42:44;100846.53;;;9.53;74.75
53647;BME280;39550;52.230;5.194;2023-04-28T13:45:11;100896.63;;;9.83;75.40
53647;BME280;39550;52.230;5.194;2023-04-28T13:47:36;100896.59;;;9.81;75.18
53647;BME280;39550;52.230;5.194;2023-04-28T13:50:01;100906.91;;;9.81;75.33
53647;BME280;39550;52.230;5.194;2023-04-28T13:52:27;100895.78;;;9.85;75.20
53647;BME280;39550;52.230;5.194;2023-04-28T13:54:52;100891.56;;;9.89;76.13